42C weather

White Cloud Airport
White Cloud, Michigan, United States

Public forecast

Using degrees Fahrenheit for public forecast. Weather courtesy of forecast.io.

METAR (pilot weather report)

Closest report is Fremont Municipal Airport, 12.0 nm (22.3 km) SW. Retrieved 2019/09/19 05:36 UTC (0 seconds ago):

KFFX 190536Z AUTO 13003KT 10SM CLR 17/10 A3013 RMK AO2 T01670103

TAF (pilot weather forecast)

Forecast is more than 12 hours old.

Closest forecast is Muskegon County Airport, 31.0 nm (57.4 km) SW. Retrieved 2019/09/18 00:42 UTC (1 day ago):

TAF KMKG 182340Z 1900/1924 17005KT P6SM SKC